sensor_id;sensor_type;location;lat;lon;timestamp;pressure;altitude;pressure_sealevel;temperature;humidity
72423;BME280;71399;54.146;38.734;2023-10-13T00:01:50;97498.66;;;10.74;100.00
72423;BME280;71399;54.146;38.734;2023-10-13T00:04:18;97508.63;;;10.77;100.00
72423;BME280;71399;54.146;38.734;2023-10-13T00:06:48;97524.44;;;10.77;100.00
72423;BME280;71399;54.146;38.734;2023-10-13T00:09:15;97522.28;;;10.84;100.00
72423;BME280;71399;54.146;38.734;2023-10-13T00:11:42;97519.81;;;10.93;100.00
72423;BME280;71399;54.146;38.734;2023-10-13T00:14:13;97508.94;;;11.00;100.00
72423;BME280;71399;54.146;38.734;2023-10-13T00:16:45;97502.03;;;11.04;100.00
72423;BME280;71399;54.146;38.734;2023-10-13T00:19:34;97473.88;;;10.99;100.00
72423;BME280;71399;54.146;38.734;2023-10-13T00:22:07;97481.50;;;11.01;100.00
72423;BME280;71399;54.146;38.734;2023-10-13T00:24:39;97469.47;;;10.94;100.00
72423;BME280;71399;54.146;38.734;2023-10-13T00:27:19;97457.19;;;10.85;100.00
72423;BME280;71399;54.146;38.734;2023-10-13T00:30:04;97467.94;;;10.88;100.00
72423;BME280;71399;54.146;38.734;2023-10-13T00:32:52;97468.56;;;10.80;100.00
72423;BME280;71399;54.146;38.734;2023-10-13T00:35:23;97462.34;;;10.71;100.00
72423;BME280;71399;54.146;38.734;2023-10-13T00:38:03;97465.00;;;10.66;100.00
72423;BME280;71399;54.146;38.734;2023-10-13T00:40:40;97477.16;;;10.62;100.00
72423;BME280;71399;54.146;38.734;2023-10-13T00:43:29;97482.50;;;10.56;100.00
72423;BME280;71399;54.146;38.734;2023-10-13T00:46:00;97476.22;;;10.52;100.00
72423;BME280;71399;54.146;38.734;2023-10-13T00:48:29;97497.19;;;10.63;100.00
72423;BME280;71399;54.146;38.734;2023-10-13T00:51:04;97500.84;;;10.67;100.00
72423;BME280;71399;54.146;38.734;2023-10-13T00:53:35;97489.56;;;10.61;100.00
72423;BME280;71399;54.146;38.734;2023-10-13T00:56:10;97495.28;;;10.68;100.00
72423;BME280;71399;54.146;38.734;2023-10-13T00:58:49;97497.41;;;10.66;100.00
72423;BME280;71399;54.146;38.734;2023-10-13T01:01:22;97484.84;;;10.58;100.00
72423;BME280;71399;54.146;38.734;2023-10-13T01:03:53;97497.19;;;10.63;100.00
72423;BME280;71399;54.146;38.734;2023-10-13T01:06:29;97504.81;;;10.64;100.00
72423;BME280;71399;54.146;38.734;2023-10-13T01:09:03;97506.16;;;10.62;100.00
72423;BME280;71399;54.146;38.734;2023-10-13T01:11:47;97505.31;;;10.66;100.00
72423;BME280;71399;54.146;38.734;2023-10-13T01:14:26;97506.06;;;10.72;100.00
72423;BME280;71399;54.146;38.734;2023-10-13T01:16:55;97514.13;;;10.81;100.00
72423;BME280;71399;54.146;38.734;2023-10-13T01:19:24;97507.31;;;10.80;100.00
72423;BME280;71399;54.146;38.734;2023-10-13T01:21:51;97503.41;;;10.72;100.00
72423;BME280;71399;54.146;38.734;2023-10-13T01:24:29;97492.75;;;10.58;100.00
72423;BME280;71399;54.146;38.734;2023-10-13T01:27:02;97496.94;;;10.59;100.00
72423;BME280;71399;54.146;38.734;2023-10-13T01:29:46;97484.16;;;10.47;100.00
72423;BME280;71399;54.146;38.734;2023-10-13T01:32:19;97478.66;;;10.44;100.00
72423;BME280;71399;54.146;38.734;2023-10-13T01:34:45;97473.19;;;10.35;100.00
72423;BME280;71399;54.146;38.734;2023-10-13T01:37:16;97471.13;;;10.27;100.00
72423;BME280;71399;54.146;38.734;2023-10-13T01:39:42;97469.13;;;10.13;100.00
72423;BME280;71399;54.146;38.734;2023-10-13T01:42:13;97474.16;;;10.10;100.00
72423;BME280;71399;54.146;38.734;2023-10-13T01:44:46;97466.06;;;10.01;100.00
72423;BME280;71399;54.146;38.734;2023-10-13T01:47:12;97463.75;;;9.94;100.00
72423;BME280;71399;54.146;38.734;2023-10-13T01:49:38;97453.78;;;9.91;100.00
72423;BME280;71399;54.146;38.734;2023-10-13T01:52:09;97459.06;;;9.86;100.00
72423;BME280;71399;54.146;38.734;2023-10-13T01:54:45;97450.16;;;9.82;100.00
72423;BME280;71399;54.146;38.734;2023-10-13T01:57:12;97431.53;;;9.73;100.00
72423;BME280;71399;54.146;38.734;2023-10-13T01:59:40;97428.91;;;9.73;100.00
72423;BME280;71399;54.146;38.734;2023-10-13T02:02:11;97409.75;;;9.68;100.00
72423;BME280;71399;54.146;38.734;2023-10-13T02:04:41;97405.06;;;9.59;100.00
72423;BME280;71399;54.146;38.734;2023-10-13T02:07:22;97384.84;;;9.55;100.00
72423;BME280;71399;54.146;38.734;2023-10-13T02:09:56;97370.69;;;9.51;100.00
72423;BME280;71399;54.146;38.734;2023-10-13T02:12:23;97307.34;;;9.42;100.00
72423;BME280;71399;54.146;38.734;2023-10-13T02:14:55;97292.94;;;9.39;100.00
72423;BME280;71399;54.146;38.734;2023-10-13T02:17:23;97301.59;;;9.40;100.00
72423;BME280;71399;54.146;38.734;2023-10-13T02:19:49;97306.63;;;9.36;100.00
72423;BME280;71399;54.146;38.734;2023-10-13T02:22:20;97307.44;;;9.32;100.00
72423;BME280;71399;54.146;38.734;2023-10-13T02:24:58;97314.53;;;9.31;100.00
72423;BME280;71399;54.146;38.734;2023-10-13T02:27:34;97316.13;;;9.27;100.00
72423;BME280;71399;54.146;38.734;2023-10-13T02:30:08;97315.66;;;9.20;100.00
72423;BME280;71399;54.146;38.734;2023-10-13T02:32:41;97335.09;;;9.24;100.00
72423;BME280;71399;54.146;38.734;2023-10-13T02:35:11;97334.06;;;9.20;100.00
72423;BME280;71399;54.146;38.734;2023-10-13T02:37:43;97329.16;;;9.08;100.00
72423;BME280;71399;54.146;38.734;2023-10-13T02:40:11;97335.19;;;9.08;100.00
72423;BME280;71399;54.146;38.734;2023-10-13T02:42:38;97348.88;;;9.05;100.00
72423;BME280;71399;54.146;38.734;2023-10-13T02:45:05;97351.00;;;8.98;100.00
72423;BME280;71399;54.146;38.734;2023-10-13T02:47:33;97348.94;;;8.90;100.00
72423;BME280;71399;54.146;38.734;2023-10-13T02:50:00;97347.38;;;8.89;100.00
72423;BME280;71399;54.146;38.734;2023-10-13T02:52:37;97344.22;;;8.87;100.00
72423;BME280;71399;54.146;38.734;2023-10-13T02:55:08;97358.94;;;8.88;100.00
72423;BME280;71399;54.146;38.734;2023-10-13T02:57:40;97360.53;;;8.89;100.00
72423;BME280;71399;54.146;38.734;2023-10-13T03:00:07;97365.53;;;8.85;100.00
72423;BME280;71399;54.146;38.734;2023-10-13T03:02:44;97372.38;;;8.81;100.00
72423;BME280;71399;54.146;38.734;2023-10-13T03:05:12;97370.28;;;8.78;100.00
72423;BME280;71399;54.146;38.734;2023-10-13T03:07:40;97375.00;;;8.76;100.00
72423;BME280;71399;54.146;38.734;2023-10-13T03:10:10;97368.19;;;8.70;100.00
72423;BME280;71399;54.146;38.734;2023-10-13T03:12:38;97371.63;;;8.70;100.00
72423;BME280;71399;54.146;38.734;2023-10-13T03:15:05;97367.19;;;8.61;100.00
72423;BME280;71399;54.146;38.734;2023-10-13T03:17:40;97380.84;;;8.63;100.00
72423;BME280;71399;54.146;38.734;2023-10-13T03:20:15;97388.97;;;8.61;100.00
72423;BME280;71399;54.146;38.734;2023-10-13T03:22:42;97399.25;;;8.58;100.00
72423;BME280;71399;54.146;38.734;2023-10-13T03:25:13;97405.28;;;8.58;100.00
72423;BME280;71399;54.146;38.734;2023-10-13T03:27:47;97413.94;;;8.64;100.00
72423;BME280;71399;54.146;38.734;2023-10-13T03:30:18;97392.66;;;8.60;100.00
72423;BME280;71399;54.146;38.734;2023-10-13T03:32:47;97393.19;;;8.62;100.00
72423;BME280;71399;54.146;38.734;2023-10-13T03:35:20;97401.06;;;8.67;100.00
72423;BME280;71399;54.146;38.734;2023-10-13T03:37:52;97398.94;;;8.69;100.00
72423;BME280;71399;54.146;38.734;2023-10-13T03:40:19;97393.19;;;8.67;100.00
72423;BME280;71399;54.146;38.734;2023-10-13T03:42:51;97391.06;;;8.69;100.00
72423;BME280;71399;54.146;38.734;2023-10-13T03:45:40;97389.16;;;8.80;100.00
72423;BME280;71399;54.146;38.734;2023-10-13T03:48:10;97382.38;;;8.79;100.00
72423;BME280;71399;54.146;38.734;2023-10-13T03:50:42;97389.94;;;8.86;100.00
72423;BME280;71399;54.146;38.734;2023-10-13T03:53:31;97383.63;;;8.92;100.00
72423;BME280;71399;54.146;38.734;2023-10-13T03:56:03;97385.44;;;8.92;100.00
72423;BME280;71399;54.146;38.734;2023-10-13T03:58:41;97383.34;;;8.94;100.00
72423;BME280;71399;54.146;38.734;2023-10-13T04:01:13;97374.13;;;8.96;100.00
72423;BME280;71399;54.146;38.734;2023-10-13T04:03:43;97373.88;;;8.98;100.00
72423;BME280;71399;54.146;38.734;2023-10-13T04:06:31;97374.38;;;9.00;100.00
72423;BME280;71399;54.146;38.734;2023-10-13T04:09:21;97365.75;;;8.94;100.00
72423;BME280;71399;54.146;38.734;2023-10-13T04:12:01;97394.88;;;8.98;100.00
72423;BME280;71399;54.146;38.734;2023-10-13T04:14:32;97384.91;;;8.95;100.00
72423;BME280;71399;54.146;38.734;2023-10-13T04:17:17;97392.00;;;8.99;100.00
72423;BME280;71399;54.146;38.734;2023-10-13T04:19:55;97390.94;;;9.00;100.00
72423;BME280;71399;54.146;38.734;2023-10-13T04:22:42;97372.25;;;9.02;100.00
72423;BME280;71399;54.146;38.734;2023-10-13T04:25:22;97360.44;;;9.04;100.00
72423;BME280;71399;54.146;38.734;2023-10-13T04:28:03;97360.72;;;9.03;100.00
72423;BME280;71399;54.146;38.734;2023-10-13T04:31:00;97361.47;;;9.03;100.00
72423;BME280;71399;54.146;38.734;2023-10-13T04:33:38;97365.69;;;9.04;100.00
72423;BME280;71399;54.146;38.734;2023-10-13T04:36:30;97363.06;;;9.04;100.00
72423;BME280;71399;54.146;38.734;2023-10-13T04:38:59;97359.41;;;9.00;100.00
72423;BME280;71399;54.146;38.734;2023-10-13T04:41:33;97360.75;;;8.93;100.00
72423;BME280;71399;54.146;38.734;2023-10-13T04:44:23;97360.53;;;8.84;100.00
72423;BME280;71399;54.146;38.734;2023-10-13T04:46:57;97351.13;;;8.73;100.00
72423;BME280;71399;54.146;38.734;2023-10-13T04:49:30;97373.72;;;8.79;100.00
72423;BME280;71399;54.146;38.734;2023-10-13T04:52:09;97363.19;;;8.79;100.00
72423;BME280;71399;54.146;38.734;2023-10-13T04:54:42;97372.16;;;8.73;100.00
72423;BME280;71399;54.146;38.734;2023-10-13T04:57:15;97375.31;;;8.69;100.00
72423;BME280;71399;54.146;38.734;2023-10-13T05:00:02;97355.88;;;8.60;100.00
72423;BME280;71399;54.146;38.734;2023-10-13T05:02:42;97369.28;;;8.69;100.00
72423;BME280;71399;54.146;38.734;2023-10-13T05:05:27;97377.38;;;8.78;100.00
72423;BME280;71399;54.146;38.734;2023-10-13T05:08:11;97373.66;;;8.89;100.00
72423;BME280;71399;54.146;38.734;2023-10-13T05:10:56;97370.75;;;8.96;100.00
72423;BME280;71399;54.146;38.734;2023-10-13T05:13:41;97377.53;;;9.02;100.00
72423;BME280;71399;54.146;38.734;2023-10-13T05:16:25;97378.84;;;9.04;100.00
72423;BME280;71399;54.146;38.734;2023-10-13T05:19:10;97377.81;;;8.95;100.00
72423;BME280;71399;54.146;38.734;2023-10-13T05:21:54;97390.16;;;8.95;100.00
72423;BME280;71399;54.146;38.734;2023-10-13T05:24:39;97382.06;;;8.86;100.00
72423;BME280;71399;54.146;38.734;2023-10-13T05:27:24;97385.75;;;8.85;100.00
72423;BME280;71399;54.146;38.734;2023-10-13T05:30:09;97391.81;;;8.85;100.00
72423;BME280;71399;54.146;38.734;2023-10-13T05:32:54;97400.72;;;8.84;100.00
72423;BME280;71399;54.146;38.734;2023-10-13T05:35:39;97389.16;;;8.80;100.00
72423;BME280;71399;54.146;38.734;2023-10-13T05:38:24;97403.06;;;8.91;100.00
72423;BME280;71399;54.146;38.734;2023-10-13T05:41:08;97398.63;;;8.86;100.00
72423;BME280;71399;54.146;38.734;2023-10-13T05:43:53;97404.09;;;8.95;100.00
72423;BME280;71399;54.146;38.734;2023-10-13T05:46:38;97420.66;;;8.96;100.00
72423;BME280;71399;54.146;38.734;2023-10-13T05:49:05;97417.22;;;8.95;100.00
72423;BME280;71399;54.146;38.734;2023-10-13T05:51:55;97419.56;;;9.02;100.00
72423;BME280;71399;54.146;38.734;2023-10-13T05:54:32;97427.72;;;9.05;100.00
72423;BME280;71399;54.146;38.734;2023-10-13T05:57:17;97432.94;;;9.11;100.00
72423;BME280;71399;54.146;38.734;2023-10-13T06:00:02;97439.47;;;9.18;100.00
72423;BME280;71399;54.146;38.734;2023-10-13T06:02:47;97453.84;;;9.36;100.00
72423;BME280;71399;54.146;38.734;2023-10-13T06:05:32;97461.31;;;9.63;100.00
72423;BME280;71399;54.146;38.734;2023-10-13T06:08:16;97467.00;;;9.81;100.00
72423;BME280;71399;54.146;38.734;2023-10-13T06:11:02;97477.72;;;9.90;100.00
72423;BME280;71399;54.146;38.734;2023-10-13T06:13:47;97465.88;;;9.92;100.00
72423;BME280;71399;54.146;38.734;2023-10-13T06:16:33;97472.97;;;9.92;100.00
72423;BME280;71399;54.146;38.734;2023-10-13T06:19:17;97485.38;;;9.86;100.00
72423;BME280;71399;54.146;38.734;2023-10-13T06:22:02;97519.41;;;9.77;100.00
72423;BME280;71399;54.146;38.734;2023-10-13T06:24:46;97542.59;;;9.65;100.00
72423;BME280;71399;54.146;38.734;2023-10-13T06:27:31;97560.19;;;9.70;100.00
72423;BME280;71399;54.146;38.734;2023-10-13T06:30:16;97528.34;;;9.76;100.00
72423;BME280;71399;54.146;38.734;2023-10-13T06:32:43;97573.28;;;9.85;100.00
72423;BME280;71399;54.146;38.734;2023-10-13T06:35:12;97594.84;;;9.92;100.00
72423;BME280;71399;54.146;38.734;2023-10-13T06:37:50;97639.56;;;9.92;100.00
72423;BME280;71399;54.146;38.734;2023-10-13T06:40:17;97658.81;;;9.82;100.00
72423;BME280;71399;54.146;38.734;2023-10-13T06:42:57;97657.50;;;9.75;100.00
72423;BME280;71399;54.146;38.734;2023-10-13T06:45:41;97655.94;;;9.79;100.00
72423;BME280;71399;54.146;38.734;2023-10-13T06:48:08;97700.38;;;9.80;100.00
72423;BME280;71399;54.146;38.734;2023-10-13T06:50:37;97670.84;;;10.04;100.00
72423;BME280;71399;54.146;38.734;2023-10-13T06:53:07;97699.69;;;10.25;100.00
72423;BME280;71399;54.146;38.734;2023-10-13T06:55:37;97724.97;;;10.36;100.00
72423;BME280;71399;54.146;38.734;2023-10-13T06:58:06;97734.38;;;10.42;100.00
72423;BME280;71399;54.146;38.734;2023-10-13T07:00:33;97779.16;;;10.42;100.00
72423;BME280;71399;54.146;38.734;2023-10-13T07:03:07;97782.88;;;10.41;100.00
72423;BME280;71399;54.146;38.734;2023-10-13T07:05:36;97793.69;;;10.40;100.00
72423;BME280;71399;54.146;38.734;2023-10-13T07:08:08;97763.03;;;10.54;100.00
72423;BME280;71399;54.146;38.734;2023-10-13T07:10:35;97798.06;;;10.60;100.00
72423;BME280;71399;54.146;38.734;2023-10-13T07:13:14;97834.41;;;10.68;100.00
72423;BME280;71399;54.146;38.734;2023-10-13T07:15:43;97848.03;;;10.80;100.00
72423;BME280;71399;54.146;38.734;2023-10-13T07:18:15;97860.94;;;10.87;100.00
72423;BME280;71399;54.146;38.734;2023-10-13T07:20:44;97914.41;;;10.87;100.00
72423;BME280;71399;54.146;38.734;2023-10-13T07:23:12;98202.53;;;10.78;100.00
72423;BME280;71399;54.146;38.734;2023-10-13T07:25:56;98236.00;;;10.82;100.00
72423;BME280;71399;54.146;38.734;2023-10-13T07:28:32;98308.22;;;10.81;100.00
72423;BME280;71399;54.146;38.734;2023-10-13T07:31:25;98293.75;;;10.94;100.00
72423;BME280;71399;54.146;38.734;2023-10-13T07:33:53;98294.84;;;11.13;100.00
72423;BME280;71399;54.146;38.734;2023-10-13T07:36:30;98338.94;;;11.39;100.00
72423;BME280;71399;54.146;38.734;2023-10-13T07:39:05;98346.06;;;11.48;100.00
72423;BME280;71399;54.146;38.734;2023-10-13T07:41:48;98390.63;;;11.35;100.00
72423;BME280;71399;54.146;38.734;2023-10-13T07:44:23;98401.94;;;11.20;100.00
72423;BME280;71399;54.146;38.734;2023-10-13T07:46:58;98401.38;;;11.12;100.00
72423;BME280;71399;54.146;38.734;2023-10-13T07:49:35;98404.31;;;11.16;100.00
72423;BME280;71399;54.146;38.734;2023-10-13T07:52:10;98431.75;;;11.25;100.00
72423;BME280;71399;54.146;38.734;2023-10-13T07:54:50;98438.66;;;11.37;100.00
72423;BME280;71399;54.146;38.734;2023-10-13T07:57:29;98469.56;;;11.46;100.00
72423;BME280;71399;54.146;38.734;2023-10-13T07:59:56;98477.22;;;11.53;100.00
72423;BME280;71399;54.146;38.734;2023-10-13T08:02:38;98457.75;;;11.70;100.00
72423;BME280;71399;54.146;38.734;2023-10-13T08:05:18;98466.22;;;11.92;100.00
72423;BME280;71399;54.146;38.734;2023-10-13T08:08:05;98494.75;;;11.95;100.00
72423;BME280;71399;54.146;38.734;2023-10-13T08:10:41;98498.94;;;11.86;100.00
72423;BME280;71399;54.146;38.734;2023-10-13T08:13:11;98493.38;;;11.82;100.00
72423;BME280;71399;54.146;38.734;2023-10-13T08:15:42;98512.69;;;11.83;100.00
72423;BME280;71399;54.146;38.734;2023-10-13T08:18:15;98534.88;;;11.92;100.00
72423;BME280;71399;54.146;38.734;2023-10-13T08:20:58;98526.91;;;11.77;100.00
72423;BME280;71399;54.146;38.734;2023-10-13T08:23:30;98540.34;;;11.65;100.00
72423;BME280;71399;54.146;38.734;2023-10-13T08:26:15;98533.16;;;11.50;100.00
72423;BME280;71399;54.146;38.734;2023-10-13T08:28:57;98537.94;;;11.63;100.00
72423;BME280;71399;54.146;38.734;2023-10-13T08:31:48;98548.25;;;11.65;100.00
72423;BME280;71399;54.146;38.734;2023-10-13T08:34:31;98546.38;;;11.55;100.00
72423;BME280;71399;54.146;38.734;2023-10-13T08:37:10;98540.31;;;11.60;100.00
72423;BME280;71399;54.146;38.734;2023-10-13T08:39:45;98541.97;;;11.76;100.00
72423;BME280;71399;54.146;38.734;2023-10-13T08:42:32;98545.97;;;11.99;100.00
72423;BME280;71399;54.146;38.734;2023-10-13T08:48:00;98563.47;;;12.21;100.00
72423;BME280;71399;54.146;38.734;2023-10-13T08:50:52;98587.72;;;12.02;100.00
72423;BME280;71399;54.146;38.734;2023-10-13T08:53:25;98578.22;;;12.01;100.00
72423;BME280;71399;54.146;38.734;2023-10-13T08:55:58;98576.41;;;12.22;100.00
72423;BME280;71399;54.146;38.734;2023-10-13T08:58:47;98580.38;;;12.25;100.00
72423;BME280;71399;54.146;38.734;2023-10-13T09:01:23;98609.19;;;12.27;100.00
72423;BME280;71399;54.146;38.734;2023-10-13T09:04:11;98589.91;;;12.72;100.00
72423;BME280;71399;54.146;38.734;2023-10-13T09:06:57;98625.59;;;13.06;100.00
72423;BME280;71399;54.146;38.734;2023-10-13T09:09:49;98627.94;;;13.28;100.00
72423;BME280;71399;54.146;38.734;2023-10-13T09:12:27;98638.53;;;13.23;100.00
72423;BME280;71399;54.146;38.734;2023-10-13T09:15:11;98645.19;;;13.05;100.00
72423;BME280;71399;54.146;38.734;2023-10-13T09:17:45;98644.41;;;12.73;100.00
72423;BME280;71399;54.146;38.734;2023-10-13T09:20:29;98641.69;;;12.37;100.00
72423;BME280;71399;54.146;38.734;2023-10-13T09:23:12;98658.31;;;12.33;100.00
72423;BME280;71399;54.146;38.734;2023-10-13T09:25:51;98667.34;;;12.47;100.00
72423;BME280;71399;54.146;38.734;2023-10-13T09:28:28;98660.50;;;12.56;100.00
72423;BME280;71399;54.146;38.734;2023-10-13T09:30:55;98667.88;;;12.44;100.00
72423;BME280;71399;54.146;38.734;2023-10-13T09:33:27;98670.50;;;12.39;100.00
72423;BME280;71399;54.146;38.734;2023-10-13T09:36:06;98675.53;;;12.40;100.00
72423;BME280;71399;54.146;38.734;2023-10-13T09:38:35;98661.56;;;12.50;100.00
72423;BME280;71399;54.146;38.734;2023-10-13T09:41:14;98654.16;;;12.47;100.00
72423;BME280;71399;54.146;38.734;2023-10-13T09:43:44;98665.53;;;12.58;100.00
72423;BME280;71399;54.146;38.734;2023-10-13T09:46:19;98660.00;;;12.65;100.00
72423;BME280;71399;54.146;38.734;2023-10-13T09:48:46;98672.16;;;12.71;100.00
72423;BME280;71399;54.146;38.734;2023-10-13T09:51:14;98679.56;;;12.74;100.00
72423;BME280;71399;54.146;38.734;2023-10-13T09:53:56;98682.75;;;12.91;100.00
72423;BME280;71399;54.146;38.734;2023-10-13T09:56:31;98693.06;;;12.88;100.00
72423;BME280;71399;54.146;38.734;2023-10-13T09:59:10;98698.06;;;12.84;100.00
72423;BME280;71399;54.146;38.734;2023-10-13T10:01:41;98705.47;;;12.72;100.00
72423;BME280;71399;54.146;38.734;2023-10-13T10:04:31;98708.13;;;12.77;100.00
72423;BME280;71399;54.146;38.734;2023-10-13T10:07:01;98710.00;;;12.82;100.00
72423;BME280;71399;54.146;38.734;2023-10-13T10:09:33;98725.09;;;12.91;100.00
72423;BME280;71399;54.146;38.734;2023-10-13T10:12:16;98719.00;;;13.16;100.00
72423;BME280;71399;54.146;38.734;2023-10-13T10:17:42;98730.94;;;13.45;100.00
72423;BME280;71399;54.146;38.734;2023-10-13T10:20:10;98738.06;;;13.34;100.00
72423;BME280;71399;54.146;38.734;2023-10-13T10:22:59;98739.69;;;13.35;100.00
72423;BME280;71399;54.146;38.734;2023-10-13T10:25:33;98738.84;;;13.09;100.00
72423;BME280;71399;54.146;38.734;2023-10-13T10:28:07;98747.53;;;12.89;100.00
72423;BME280;71399;54.146;38.734;2023-10-13T10:30:38;98743.31;;;12.88;100.00
72423;BME280;71399;54.146;38.734;2023-10-13T10:33:06;98731.16;;;13.07;100.00
72423;BME280;71399;54.146;38.734;2023-10-13T10:35:47;98736.44;;;13.28;100.00
72423;BME280;71399;54.146;38.734;2023-10-13T10:40:51;98735.41;;;13.49;100.00
72423;BME280;71399;54.146;38.734;2023-10-13T10:46:16;98744.63;;;13.78;100.00
72423;BME280;71399;54.146;38.734;2023-10-13T10:48:43;98752.31;;;13.79;100.00
72423;BME280;71399;54.146;38.734;2023-10-13T10:51:14;98754.75;;;13.55;100.00
72423;BME280;71399;54.146;38.734;2023-10-13T10:53:44;98748.13;;;13.22;100.00
72423;BME280;71399;54.146;38.734;2023-10-13T10:56:11;98758.91;;;12.89;100.00
72423;BME280;71399;54.146;38.734;2023-10-13T10:58:55;98755.72;;;12.77;100.00
72423;BME280;71399;54.146;38.734;2023-10-13T11:01:26;98757.84;;;12.85;100.00
72423;BME280;71399;54.146;38.734;2023-10-13T11:04:14;98759.22;;;13.13;100.00
72423;BME280;71399;54.146;38.734;2023-10-13T11:06:51;98752.91;;;13.40;100.00
72423;BME280;71399;54.146;38.734;2023-10-13T11:09:32;98766.38;;;13.59;100.00
72423;BME280;71399;54.146;38.734;2023-10-13T11:14:32;98805.06;;;13.55;100.00
72423;BME280;71399;54.146;38.734;2023-10-13T11:16:59;98812.19;;;13.34;100.00
72423;BME280;71399;54.146;38.734;2023-10-13T11:19:46;98818.47;;;13.18;100.00
72423;BME280;71399;54.146;38.734;2023-10-13T11:22:14;98815.81;;;13.02;100.00
72423;BME280;71399;54.146;38.734;2023-10-13T11:25:00;98811.53;;;12.86;100.00
72423;BME280;71399;54.146;38.734;2023-10-13T11:27:32;98813.94;;;12.92;100.00
72423;BME280;71399;54.146;38.734;2023-10-13T11:30:18;98813.69;;;12.94;100.00
72423;BME280;71399;54.146;38.734;2023-10-13T11:33:02;98807.63;;;13.04;100.00
72423;BME280;71399;54.146;38.734;2023-10-13T11:35:32;98806.84;;;13.19;100.00
72423;BME280;71399;54.146;38.734;2023-10-13T11:38:17;98815.09;;;13.32;100.00
72423;BME280;71399;54.146;38.734;2023-10-13T11:41:07;98815.06;;;13.22;100.00
72423;BME280;71399;54.146;38.734;2023-10-13T11:43:51;98823.75;;;13.07;100.00
72423;BME280;71399;54.146;38.734;2023-10-13T11:46:24;98821.63;;;12.99;100.00
72423;BME280;71399;54.146;38.734;2023-10-13T11:49:11;98825.03;;;12.94;100.00
72423;BME280;71399;54.146;38.734;2023-10-13T11:51:59;98819.22;;;12.92;100.00
72423;BME280;71399;54.146;38.734;2023-10-13T11:54:42;98824.25;;;12.94;100.00
72423;BME280;71399;54.146;38.734;2023-10-13T11:57:09;98818.97;;;12.94;100.00
72423;BME280;71399;54.146;38.734;2023-10-13T11:59:35;98833.81;;;13.00;100.00
72423;BME280;71399;54.146;38.734;2023-10-13T12:02:11;98846.75;;;12.91;100.00
72423;BME280;71399;54.146;38.734;2023-10-13T12:04:53;98844.88;;;12.92;100.00
72423;BME280;71399;54.146;38.734;2023-10-13T12:07:23;98839.06;;;12.90;100.00
72423;BME280;71399;54.146;38.734;2023-10-13T12:09:53;98841.47;;;12.96;100.00
72423;BME280;71399;54.146;38.734;2023-10-13T12:12:21;98853.38;;;13.09;100.00
72423;BME280;71399;54.146;38.734;2023-10-13T12:14:47;98858.44;;;13.16;100.00
72423;BME280;71399;54.146;38.734;2023-10-13T12:17:28;98856.84;;;13.05;100.00
72423;BME280;71399;54.146;38.734;2023-10-13T12:19:58;98858.41;;;13.06;100.00
72423;BME280;71399;54.146;38.734;2023-10-13T12:22:31;98870.88;;;13.10;100.00
72423;BME280;71399;54.146;38.734;2023-10-13T12:25:17;98871.66;;;13.11;100.00
72423;BME280;71399;54.146;38.734;2023-10-13T12:28:06;98874.28;;;13.11;100.00
72423;BME280;71399;54.146;38.734;2023-10-13T12:30:45;98875.06;;;13.06;100.00
72423;BME280;71399;54.146;38.734;2023-10-13T12:33:24;98865.03;;;13.03;100.00
72423;BME280;71399;54.146;38.734;2023-10-13T12:35:58;98889.13;;;13.07;100.00
72423;BME280;71399;54.146;38.734;2023-10-13T12:38:40;98876.66;;;12.97;100.00
72423;BME280;71399;54.146;38.734;2023-10-13T12:41:20;98877.69;;;12.96;100.00
72423;BME280;71399;54.146;38.734;2023-10-13T12:44:06;98881.66;;;12.93;100.00
72423;BME280;71399;54.146;38.734;2023-10-13T12:46:51;98881.91;;;12.92;100.00
72423;BME280;71399;54.146;38.734;2023-10-13T12:49:36;98891.66;;;12.86;100.00
72423;BME280;71399;54.146;38.734;2023-10-13T12:52:10;98883.72;;;12.86;100.00
72423;BME280;71399;54.146;38.734;2023-10-13T12:54:47;98894.28;;;12.81;100.00
72423;BME280;71399;54.146;38.734;2023-10-13T12:57:25;98894.53;;;12.74;100.00
72423;BME280;71399;54.146;38.734;2023-10-13T12:59:53;98892.69;;;12.70;100.00
72423;BME280;71399;54.146;38.734;2023-10-13T13:02:24;98892.13;;;12.68;100.00
72423;BME280;71399;54.146;38.734;2023-10-13T13:04:54;98895.84;;;12.67;100.00
72423;BME280;71399;54.146;38.734;2023-10-13T13:07:23;98897.66;;;12.66;100.00
72423;BME280;71399;54.146;38.734;2023-10-13T13:09:55;98887.31;;;12.59;100.00
72423;BME280;71399;54.146;38.734;2023-10-13T13:12:26;98886.22;;;12.50;100.00
72423;BME280;71399;54.146;38.734;2023-10-13T13:14:55;98878.28;;;12.45;100.00
72423;BME280;71399;54.146;38.734;2023-10-13T13:17:22;98879.56;;;12.42;100.00
72423;BME280;71399;54.146;38.734;2023-10-13T13:19:48;98902.84;;;12.46;100.00
72423;BME280;71399;54.146;38.734;2023-10-13T13:22:15;98880.59;;;12.36;100.00
72423;BME280;71399;54.146;38.734;2023-10-13T13:24:44;98885.63;;;12.38;100.00
72423;BME280;71399;54.146;38.734;2023-10-13T13:27:12;98900.13;;;12.30;100.00
72423;BME280;71399;54.146;38.734;2023-10-13T13:29:45;98910.41;;;12.27;100.00
72423;BME280;71399;54.146;38.734;2023-10-13T13:32:12;98918.03;;;12.23;100.00
72423;BME280;71399;54.146;38.734;2023-10-13T13:34:51;98911.59;;;12.09;100.00
72423;BME280;71399;54.146;38.734;2023-10-13T13:37:24;98917.41;;;12.11;100.00
72423;BME280;71399;54.146;38.734;2023-10-13T13:39:53;98914.72;;;12.05;100.00
72423;BME280;71399;54.146;38.734;2023-10-13T13:42:19;98914.94;;;11.99;100.00